Loutete Airport


Codes: FCBT/
Name: Loutete Airport
City: Loutete
Country: Congo [Republic]
Elevation: 656 ft.

Photos at Loutete Airport


   Photos courtesy of SpottingLog. You can add your own sightings and photos by signing up for a free trial today.



No photos found.

Weather at Loutete Airport


Time (UTC)DescriptionTempratureWindCloud coverageVisibilityPressureHumidity
21-Feb-2024 03:00Broken Clouds24°C0 mph, SW77%10000m1009hPa93%
21-Feb-2024 06:00Overcast Clouds24°C2 mph, SE87%10000m1010hPa91%
21-Feb-2024 09:00Overcast Clouds30°C2 mph, W100%10000m1010hPa72%
21-Feb-2024 12:00Overcast Clouds34°C0 mph, N100%10000m1007hPa60%
21-Feb-2024 15:00Light Rain33°C2 mph, N80%10000m1004hPa60%
21-Feb-2024 18:00Light Rain28°C0 mph, S88%10000m1005hPa79%
21-Feb-2024 21:00Light Rain27°C2 mph, SW100%10000m1007hPa85%
22-Feb-2024 00:00Light Rain25°C2 mph, W100%10000m1007hPa94%
22-Feb-2024 03:00Light Rain25°C2 mph, W100%10000m1007hPa95%
22-Feb-2024 06:00Moderate Rain25°C2 mph, SW100%10000m1009hPa95%
22-Feb-2024 09:00Light Rain27°C2 mph, NE100%10000m1010hPa88%
22-Feb-2024 12:00Light Rain27°C2 mph, NE100%10000m1008hPa87%
22-Feb-2024 15:00Light Rain25°C2 mph, N100%10000m1008hPa94%
22-Feb-2024 18:00Overcast Clouds24°C4 mph, SW100%10000m1008hPa95%
22-Feb-2024 21:00Overcast Clouds24°C2 mph, NW100%10000m1009hPa96%
23-Feb-2024 00:00Overcast Clouds23°C0 mph, NW100%10000m1009hPa97%
23-Feb-2024 03:00Overcast Clouds23°C2 mph, NW100%10000m1010hPa97%
23-Feb-2024 06:00Overcast Clouds24°C2 mph, NW100%10000m1011hPa95%
23-Feb-2024 09:00Overcast Clouds28°C2 mph, W100%10000m1012hPa77%
23-Feb-2024 12:00Overcast Clouds30°C4 mph, NW100%10000m1009hPa66%
23-Feb-2024 15:00Overcast Clouds30°C7 mph, W100%10000m1007hPa70%
23-Feb-2024 18:00Light Rain26°C4 mph, SW96%10000m1008hPa89%
23-Feb-2024 21:00Light Rain24°C4 mph, SW94%10000m1011hPa94%
24-Feb-2024 00:00Overcast Clouds23°C2 mph, SW97%10000m1011hPa97%
24-Feb-2024 03:00Overcast Clouds23°C0 mph, W100%10000m1011hPa97%
24-Feb-2024 06:00Overcast Clouds24°C0 mph, W100%10000m1013hPa96%
24-Feb-2024 09:00Overcast Clouds29°C2 mph, SW100%10000m1013hPa76%
24-Feb-2024 12:00Overcast Clouds32°C2 mph, SW99%10000m1010hPa61%
24-Feb-2024 15:00Light Rain27°C0 mph, N100%10000m1009hPa85%
24-Feb-2024 18:00Light Rain25°C2 mph, S100%10000m1010hPa90%
24-Feb-2024 21:00Light Rain25°C2 mph, W100%10000m1013hPa92%
25-Feb-2024 00:00Overcast Clouds24°C2 mph, SW100%10000m1012hPa95%
25-Feb-2024 03:00Overcast Clouds24°C2 mph, SW100%10000m1011hPa95%
25-Feb-2024 06:00Overcast Clouds24°C2 mph, NW100%10000m1013hPa95%
25-Feb-2024 09:00Overcast Clouds28°C2 mph, NE100%10000m1015hPa81%
25-Feb-2024 12:00Light Rain28°C2 mph, NE100%10000m1012hPa83%
25-Feb-2024 15:00Moderate Rain26°C4 mph, NE100%5736m1011hPa89%
25-Feb-2024 18:00Moderate Rain23°C2 mph, E100%10000m1013hPa98%
25-Feb-2024 21:00Light Rain23°C4 mph, W97%10000m1014hPa96%
26-Feb-2024 00:00Overcast Clouds23°C2 mph, W95%10000m1013hPa97%